Terminal Aerodrome Forecast
Issued by NWS

Home | Current Version | Previous Version | Text Only | Print | Product List | Glossary On
Versions: 1 2 3 4 5 6 7 8 9 10 11 12 13 14
000
FTUS45 KTFX 191120
TAFGTF
TAF
KGTF 191120Z 1912/2012 24011KT 6SM FU SCT080 BKN200
      TEMPO 1912/1914 32011G20KT 5SM FU
     FM191400 35011G20KT 6SM FU SCT060 SCT200
      TEMPO 1914/1916 36016G24KT
     FM191900 36011KT P6SM SCT040 BKN070
     FM200200 VRB06KT P6SM SCT080=

USA.gov is the U.S. government's official web portal to all federal, state and local government web resources and services.